Time;durP1;ratioP1;P1;durP2;ratioP2;P2;SDS_P1;SDS_P2;PMS_P1;PMS_P2;Temp;Humidity;BMP_temperature;BMP_pressure;BME280_temperature;BME280_humidity;BME280_pressure;Samples;Min_cycle;Max_cycle;Signal;HPM_P1;HPM_P2
2021/07/04 00:00:32;;;;;;;;;;;20.20;91.80;;;;;;4316272;33;20020;-79
2021/07/04 00:03:01;;;;;;;;;;;20.20;91.80;;;;;;4315998;33;20073;-80
2021/07/04 00:05:33;;;;;;;;;;;20.30;91.80;;;;;;4315082;33;39714;-80
2021/07/04 00:08:00;;;;;;;;;;;20.30;91.80;;;;;;4317364;33;20010;-79
2021/07/04 00:10:32;;;;;;;;;;;20.20;91.80;;;;;;4316101;33;20418;-79
2021/07/04 00:12:59;;;;;;;;;;;20.20;91.80;;;;;;4316710;33;20069;-79
2021/07/04 00:15:28;;;;;;;;;;;20.20;91.80;;;;;;4316642;33;20461;-79
2021/07/04 00:17:55;;;;;;;;;;;20.20;91.90;;;;;;4315800;33;20013;-79
2021/07/04 00:20:23;;;;;;;;;;;20.20;91.90;;;;;;4315856;33;20450;-79
2021/07/04 00:22:59;;;;;;;;;;;20.20;91.80;;;;;;4315625;33;20010;-79
2021/07/04 00:25:27;;;;;;;;;;;20.20;91.90;;;;;;4315383;33;43779;-79
2021/07/04 00:27:55;;;;;;;;;;;20.20;91.90;;;;;;4315102;33;42857;-79
2021/07/04 00:30:23;;;;;;;;;;;20.20;91.90;;;;;;4316488;33;40483;-79
2021/07/04 00:32:50;;;;;;;;;;;20.20;91.90;;;;;;4315419;33;44965;-79
2021/07/04 00:35:19;;;;;;;;;;;20.20;91.90;;;;;;4315082;33;43037;-79
2021/07/04 00:37:46;;;;;;;;;;;20.20;91.90;;;;;;4316192;33;36677;-79
2021/07/04 00:40:14;;;;;;;;;;;20.20;91.90;;;;;;4315215;33;40764;-80
2021/07/04 00:42:41;;;;;;;;;;;20.20;91.90;;;;;;4302804;33;45362;-78
2021/07/04 00:45:11;;;;;;;;;;;20.20;92.00;;;;;;4314922;33;44389;-79
2021/07/04 00:47:38;;;;;;;;;;;20.20;92.00;;;;;;4315245;33;32017;-79
2021/07/04 00:50:06;;;;;;;;;;;20.20;92.00;;;;;;4315143;33;44259;-79
2021/07/04 00:52:34;;;;;;;;;;;20.20;92.00;;;;;;4316144;33;43886;-79
2021/07/04 00:55:02;;;;;;;;;;;20.10;92.00;;;;;;4315450;33;43399;-79
2021/07/04 00:57:30;;;;;;;;;;;20.10;92.00;;;;;;4315623;33;43599;-79
2021/07/04 00:59:57;;;;;;;;;;;20.10;92.00;;;;;;4314703;33;42953;-79
2021/07/04 01:02:27;;;;;;;;;;;20.20;92.10;;;;;;4323703;33;44621;-79
2021/07/04 01:04:55;;;;;;;;;;;20.10;92.00;;;;;;4330465;33;40417;-79
2021/07/04 01:07:22;;;;;;;;;;;20.10;92.00;;;;;;4330143;33;42558;-79
2021/07/04 01:09:49;;;;;;;;;;;20.10;92.00;;;;;;4330745;33;36456;-79
2021/07/04 01:12:16;;;;;;;;;;;20.10;92.00;;;;;;4317513;33;34742;-80
2021/07/04 01:14:46;;;;;;;;;;;20.10;92.10;;;;;;4305158;33;40791;-79
2021/07/04 01:17:14;;;;;;;;;;;20.10;92.10;;;;;;4330616;33;44737;-79
2021/07/04 01:19:41;;;;;;;;;;;20.10;92.20;;;;;;4330417;33;40882;-79
2021/07/04 01:22:09;;;;;;;;;;;20.10;92.20;;;;;;4318159;33;19998;-79
2021/07/04 01:24:37;;;;;;;;;;;20.00;92.20;;;;;;4316835;33;45693;-80
2021/07/04 01:27:04;;;;;;;;;;;20.10;92.20;;;;;;4330538;33;39921;-79
2021/07/04 01:29:31;;;;;;;;;;;20.00;92.20;;;;;;4316908;33;43438;-79
2021/07/04 01:31:58;;;;;;;;;;;20.00;92.20;;;;;;4330408;33;27853;-79
2021/07/04 01:34:25;;;;;;;;;;;20.00;92.20;;;;;;4330410;33;43999;-79
2021/07/04 01:36:52;;;;;;;;;;;20.00;92.60;;;;;;4329805;33;43242;-80
2021/07/04 01:39:20;;;;;;;;;;;20.00;92.20;;;;;;4330145;33;44231;-79
2021/07/04 01:41:47;;;;;;;;;;;20.00;92.30;;;;;;4316696;33;43368;-79
2021/07/04 01:44:16;;;;;;;;;;;20.00;92.30;;;;;;4317449;33;27535;-80
2021/07/04 01:46:46;;;;;;;;;;;19.90;92.30;;;;;;4329790;33;45249;-79
2021/07/04 01:49:13;;;;;;;;;;;20.00;92.40;;;;;;4317308;33;37579;-79
2021/07/04 01:51:40;;;;;;;;;;;20.00;92.40;;;;;;4330319;33;41805;-79
2021/07/04 01:54:08;;;;;;;;;;;19.90;92.40;;;;;;4316870;33;43918;-79
2021/07/04 01:56:35;;;;;;;;;;;19.90;92.40;;;;;;4317400;33;42573;-79
2021/07/04 01:59:02;;;;;;;;;;;19.90;92.40;;;;;;4320042;33;36310;-79
2021/07/04 02:01:32;;;;;;;;;;;19.90;92.50;;;;;;4319438;33;43620;-79
2021/07/04 02:03:59;;;;;;;;;;;19.90;92.50;;;;;;4319544;33;41423;-79
2021/07/04 02:06:26;;;;;;;;;;;19.90;92.50;;;;;;4319095;33;45495;-79
2021/07/04 02:08:54;;;;;;;;;;;19.90;92.50;;;;;;4320638;33;20386;-79
2021/07/04 02:11:23;;;;;;;;;;;19.90;92.50;;;;;;4319126;33;39317;-79
2021/07/04 02:13:51;;;;;;;;;;;19.90;92.40;;;;;;4319095;33;40857;-80
2021/07/04 02:16:18;;;;;;;;;;;19.90;92.40;;;;;;4319264;33;29429;-79
2021/07/04 02:18:48;;;;;;;;;;;19.90;92.50;;;;;;4332536;33;45067;-79
2021/07/04 02:21:15;;;;;;;;;;;19.90;92.50;;;;;;4332749;33;42582;-79
2021/07/04 02:23:42;;;;;;;;;;;19.90;92.50;;;;;;4332388;33;42761;-79
2021/07/04 02:26:09;;;;;;;;;;;19.90;92.50;;;;;;4332514;33;36083;-79
2021/07/04 02:28:36;;;;;;;;;;;19.90;92.50;;;;;;4319145;33;32666;-79
2021/07/04 02:31:04;;;;;;;;;;;19.90;92.50;;;;;;4332305;33;44924;-80
2021/07/04 02:33:31;;;;;;;;;;;19.80;92.50;;;;;;4319482;33;43699;-79
2021/07/04 02:36:00;;;;;;;;;;;19.80;92.50;;;;;;4332649;33;25476;-79
2021/07/04 02:38:28;;;;;;;;;;;19.90;92.50;;;;;;4319819;33;27435;-79
2021/07/04 02:40:55;;;;;;;;;;;19.90;92.80;;;;;;4318921;33;42171;-79
2021/07/04 02:43:24;;;;;;;;;;;19.80;92.50;;;;;;4333049;33;20018;-78
2021/07/04 02:45:51;;;;;;;;;;;19.90;92.50;;;;;;4333433;33;20006;-79
2021/07/04 02:48:20;;;;;;;;;;;19.80;92.40;;;;;;4331922;33;44622;-79
2021/07/04 02:50:47;;;;;;;;;;;19.90;92.50;;;;;;4319252;33;39295;-79
2021/07/04 02:53:14;;;;;;;;;;;19.90;92.40;;;;;;4331806;33;36694;-78
2021/07/04 02:55:43;;;;;;;;;;;19.90;92.40;;;;;;4318185;33;45167;-78
2021/07/04 02:58:10;;;;;;;;;;;19.80;92.40;;;;;;4331531;33;43504;-79
2021/07/04 03:00:39;;;;;;;;;;;19.80;92.40;;;;;;4332022;33;43694;-79
2021/07/04 03:03:06;;;;;;;;;;;19.80;92.40;;;;;;4332211;33;20017;-79
2021/07/04 03:05:34;;;;;;;;;;;19.80;92.40;;;;;;4333035;33;20442;-78
2021/07/04 03:08:02;;;;;;;;;;;19.80;92.40;;;;;;4331945;33;21132;-78
2021/07/04 03:10:29;;;;;;;;;;;19.80;92.40;;;;;;4332498;33;20005;-79
2021/07/04 03:12:58;;;;;;;;;;;19.80;92.50;;;;;;4318958;33;20092;-79
2021/07/04 03:15:26;;;;;;;;;;;19.80;92.50;;;;;;4332057;33;20052;-78
2021/07/04 03:17:54;;;;;;;;;;;19.80;92.50;;;;;;4319232;33;20021;-78
2021/07/04 03:20:21;;;;;;;;;;;19.80;92.50;;;;;;4319217;33;20378;-78
2021/07/04 03:22:48;;;;;;;;;;;19.80;92.50;;;;;;4318996;33;20006;-78
2021/07/04 03:25:16;;;;;;;;;;;19.80;92.50;;;;;;4319524;33;20014;-78
2021/07/04 03:27:44;;;;;;;;;;;19.70;92.50;;;;;;4332376;33;20370;-78
2021/07/04 03:30:13;;;;;;;;;;;19.70;92.50;;;;;;4319535;33;19998;-79
2021/07/04 03:32:40;;;;;;;;;;;19.70;92.50;;;;;;4318881;33;20135;-78
2021/07/04 03:35:09;;;;;;;;;;;19.70;92.50;;;;;;4318537;33;20018;-78
2021/07/04 03:37:36;;;;;;;;;;;19.70;92.50;;;;;;4332397;33;20495;-78
2021/07/04 03:40:07;;;;;;;;;;;19.70;92.50;;;;;;4332073;33;20304;-79
2021/07/04 03:42:34;;;;;;;;;;;19.70;92.50;;;;;;4319126;33;21105;-79
2021/07/04 03:45:04;;;;;;;;;;;19.70;92.50;;;;;;4331738;33;20333;-78
2021/07/04 03:47:31;;;;;;;;;;;19.70;92.50;;;;;;4318692;33;20586;-78
2021/07/04 03:49:59;;;;;;;;;;;19.70;92.50;;;;;;4319413;33;20018;-79
2021/07/04 03:52:27;;;;;;;;;;;19.70;92.50;;;;;;4332119;33;20023;-79
2021/07/04 03:54:54;;;;;;;;;;;19.70;92.50;;;;;;4319161;33;20350;-79
2021/07/04 03:57:21;;;;;;;;;;;19.70;92.50;;;;;;4319118;33;20013;-79
2021/07/04 03:59:49;;;;;;;;;;;19.70;92.50;;;;;;4306660;33;20465;-78
2021/07/04 04:02:17;;;;;;;;;;;19.70;92.60;;;;;;4331842;33;20031;-78
2021/07/04 04:04:44;;;;;;;;;;;19.70;92.60;;;;;;4318972;33;20024;-78
2021/07/04 04:07:11;;;;;;;;;;;19.70;92.60;;;;;;4318810;33;20017;-80
2021/07/04 04:09:39;;;;;;;;;;;19.70;92.60;;;;;;4331637;33;20009;-79
2021/07/04 04:12:06;;;;;;;;;;;19.70;92.60;;;;;;4331523;33;20013;-79
2021/07/04 04:14:36;;;;;;;;;;;19.70;92.60;;;;;;4318552;33;20465;-79
2021/07/04 04:17:04;;;;;;;;;;;19.70;92.60;;;;;;4318526;33;20014;-79
2021/07/04 04:19:32;;;;;;;;;;;19.70;92.50;;;;;;4331424;33;20861;-78
2021/07/04 04:22:00;;;;;;;;;;;19.70;92.60;;;;;;4331239;33;20021;-79
2021/07/04 04:24:27;;;;;;;;;;;19.70;92.60;;;;;;4317835;33;22178;-79
2021/07/04 04:26:54;;;;;;;;;;;19.70;92.60;;;;;;4318875;33;20029;-79
2021/07/04 04:29:21;;;;;;;;;;;19.70;92.60;;;;;;4318373;33;20025;-79
2021/07/04 04:31:49;;;;;;;;;;;19.60;92.50;;;;;;4318958;33;20023;-79
2021/07/04 04:34:19;;;;;;;;;;;19.60;92.60;;;;;;4318103;33;20013;-80
2021/07/04 04:36:46;;;;;;;;;;;19.60;92.60;;;;;;4318806;33;20009;-79
2021/07/04 04:39:13;;;;;;;;;;;19.60;92.60;;;;;;4331319;33;20016;-79
2021/07/04 04:41:40;;;;;;;;;;;19.60;92.70;;;;;;4318390;33;20127;-79
2021/07/04 04:44:24;;;;;;;;;;;19.50;92.70;;;;;;4320763;33;20041;-79
2021/07/04 04:46:51;;;;;;;;;;;19.60;92.70;;;;;;4330729;33;41271;-79
2021/07/04 04:49:18;;;;;;;;;;;19.50;92.70;;;;;;4317174;33;39581;-79
2021/07/04 04:51:46;;;;;;;;;;;19.50;92.70;;;;;;4318808;33;20013;-79
2021/07/04 04:54:13;;;;;;;;;;;19.60;92.70;;;;;;4317330;33;43641;-79
2021/07/04 04:56:41;;;;;;;;;;;19.50;92.70;;;;;;4304833;33;44076;-79
2021/07/04 04:59:08;;;;;;;;;;;19.60;92.70;;;;;;4317208;33;47008;-78
2021/07/04 05:01:35;;;;;;;;;;;19.60;92.70;;;;;;4331382;33;20017;-79
2021/07/04 05:04:02;;;;;;;;;;;19.60;92.70;;;;;;4330583;33;43429;-79
2021/07/04 05:06:32;;;;;;;;;;;19.60;92.70;;;;;;4317616;33;44251;-79
2021/07/04 05:08:59;;;;;;;;;;;19.50;92.70;;;;;;4330481;33;42133;-79
2021/07/04 05:11:26;;;;;;;;;;;19.60;92.80;;;;;;4317730;33;20020;-79
2021/07/04 05:13:54;;;;;;;;;;;19.60;92.80;;;;;;4330503;33;43393;-79
2021/07/04 05:16:21;;;;;;;;;;;19.50;92.80;;;;;;4329989;33;44466;-78
2021/07/04 05:18:48;;;;;;;;;;;19.50;92.80;;;;;;4330784;33;37477;-78
2021/07/04 05:21:15;;;;;;;;;;;19.60;92.90;;;;;;4317334;33;44936;-78
2021/07/04 05:23:46;;;;;;;;;;;19.50;92.90;;;;;;4330485;33;42557;-78
2021/07/04 05:26:13;;;;;;;;;;;19.50;92.90;;;;;;4330346;33;41397;-78
2021/07/04 05:28:41;;;;;;;;;;;19.50;92.90;;;;;;4317308;33;42755;-78
2021/07/04 05:31:08;;;;;;;;;;;19.60;92.90;;;;;;4330837;33;44587;-78
2021/07/04 05:33:35;;;;;;;;;;;19.60;93.00;;;;;;4319671;33;45310;-78
2021/07/04 05:36:02;;;;;;;;;;;19.50;92.90;;;;;;4307504;33;44650;-78
2021/07/04 05:38:34;;;;;;;;;;;19.60;93.00;;;;;;4319501;33;37733;-78
2021/07/04 05:41:02;;;;;;;;;;;19.60;93.00;;;;;;4333098;33;43628;-78
2021/07/04 05:43:29;;;;;;;;;;;19.60;93.00;;;;;;4332584;33;43622;-79
2021/07/04 05:46:00;;;;;;;;;;;19.50;93.00;;;;;;4332664;33;44682;-78
2021/07/04 05:48:28;;;;;;;;;;;19.60;93.00;;;;;;4333360;33;20017;-78
2021/07/04 05:50:55;;;;;;;;;;;19.50;93.00;;;;;;4332614;33;44661;-78
2021/07/04 05:53:23;;;;;;;;;;;19.50;93.00;;;;;;4333001;33;44016;-78
2021/07/04 05:55:50;;;;;;;;;;;19.50;93.10;;;;;;4332897;33;43350;-78
2021/07/04 05:58:20;;;;;;;;;;;19.50;93.10;;;;;;4320561;33;20005;-79
2021/07/04 06:00:47;;;;;;;;;;;19.50;93.10;;;;;;4320072;33;44398;-79
2021/07/04 06:03:15;;;;;;;;;;;19.50;93.10;;;;;;4333552;33;20020;-78
2021/07/04 06:05:42;;;;;;;;;;;19.50;93.20;;;;;;4332849;33;43503;-78
2021/07/04 06:08:12;;;;;;;;;;;19.50;93.20;;;;;;4332905;33;41906;-78
2021/07/04 06:10:40;;;;;;;;;;;19.50;93.20;;;;;;4332633;33;44427;-79
2021/07/04 06:13:07;;;;;;;;;;;19.50;93.20;;;;;;4332361;33;39887;-78
2021/07/04 06:15:35;;;;;;;;;;;19.50;93.20;;;;;;4319073;33;43834;-78
2021/07/04 06:18:02;;;;;;;;;;;19.50;93.20;;;;;;4332264;33;44493;-79
2021/07/04 06:20:29;;;;;;;;;;;19.50;93.60;;;;;;4319132;33;40579;-79
2021/07/04 06:22:57;;;;;;;;;;;19.50;93.30;;;;;;4332241;33;39239;-79
2021/07/04 06:25:24;;;;;;;;;;;19.50;93.30;;;;;;4332419;33;44923;-78
2021/07/04 06:27:51;;;;;;;;;;;19.60;93.30;;;;;;4319051;33;41326;-79
2021/07/04 06:30:18;;;;;;;;;;;19.50;93.30;;;;;;4318959;33;39134;-78
2021/07/04 06:32:46;;;;;;;;;;;19.60;93.40;;;;;;4332525;33;41092;-78
2021/07/04 06:35:15;;;;;;;;;;;19.60;93.40;;;;;;4332285;33;40131;-78
2021/07/04 06:37:43;;;;;;;;;;;19.60;93.40;;;;;;4319401;33;32015;-78
2021/07/04 06:40:13;;;;;;;;;;;19.60;93.40;;;;;;4332635;33;40327;-79
2021/07/04 06:42:43;;;;;;;;;;;19.60;93.40;;;;;;4318641;33;27904;-79
2021/07/04 06:45:11;;;;;;;;;;;19.60;93.40;;;;;;4333654;33;20024;-78
2021/07/04 06:47:42;;;;;;;;;;;19.60;93.40;;;;;;4332174;33;43619;-79
2021/07/04 06:50:10;;;;;;;;;;;19.60;93.40;;;;;;4319481;33;32701;-78
2021/07/04 06:52:37;;;;;;;;;;;19.60;93.40;;;;;;4331916;33;46299;-79
2021/07/04 06:55:08;;;;;;;;;;;19.60;93.40;;;;;;4318806;33;34434;-78
2021/07/04 06:58:02;;;;;;;;;;;19.60;93.40;;;;;;4332525;33;20085;-80
2021/07/04 07:00:37;;;;;;;;;;;19.60;93.40;;;;;;4308569;33;20066;-78
2021/07/04 07:03:12;;;;;;;;;;;19.60;93.40;;;;;;4316214;33;46018;-78
2021/07/04 07:05:55;;;;;;;;;;;19.60;93.40;;;;;;4306910;33;20376;-78
2021/07/04 07:08:29;;;;;;;;;;;19.60;93.40;;;;;;4317180;33;20002;-78
2021/07/04 07:11:05;;;;;;;;;;;19.60;93.40;;;;;;4318454;33;20061;-79
2021/07/04 07:13:54;;;;;;;;;;;19.60;93.40;;;;;;4306557;33;20040;-78
2021/07/04 07:16:22;;;;;;;;;;;19.60;93.40;;;;;;4317150;33;20065;-78
2021/07/04 07:18:56;;;;;;;;;;;19.70;93.40;;;;;;4318436;33;20073;-77
2021/07/04 07:21:25;;;;;;;;;;;19.60;93.40;;;;;;4317116;33;20434;-79
2021/07/04 07:23:54;;;;;;;;;;;19.60;93.30;;;;;;4317049;33;20050;-79
2021/07/04 07:26:21;;;;;;;;;;;19.60;93.30;;;;;;4316471;33;20975;-78
2021/07/04 07:28:51;;;;;;;;;;;19.60;93.30;;;;;;4316359;33;20006;-78
2021/07/04 07:31:20;;;;;;;;;;;19.70;93.30;;;;;;4316649;33;20021;-78
2021/07/04 07:33:49;;;;;;;;;;;19.70;93.30;;;;;;4317398;33;20016;-78
2021/07/04 07:36:19;;;;;;;;;;;19.70;93.20;;;;;;4317152;33;20021;-79
2021/07/04 07:38:46;;;;;;;;;;;19.70;93.20;;;;;;4316999;33;20050;-79
2021/07/04 07:41:14;;;;;;;;;;;19.70;93.20;;;;;;4316395;33;20024;-79
2021/07/04 07:43:44;;;;;;;;;;;19.70;93.20;;;;;;4317243;33;20388;-79
2021/07/04 07:46:17;;;;;;;;;;;19.70;93.20;;;;;;4305436;33;20118;-79
2021/07/04 07:49:21;;;;;;;;;;;19.70;93.30;;;;;;4317629;33;20325;-79
2021/07/04 07:51:51;;;;;;;;;;;19.70;93.30;;;;;;4316725;33;38260;-79
2021/07/04 07:54:30;;;;;;;;;;;19.70;93.60;;;;;;4316327;33;20001;-79
2021/07/04 07:56:57;;;;;;;;;;;19.80;93.30;;;;;;4317863;33;20017;-79
2021/07/04 07:59:24;;;;;;;;;;;19.80;93.30;;;;;;4316266;33;32313;-79
2021/07/04 08:01:54;;;;;;;;;;;19.80;93.20;;;;;;4321696;33;20045;-79
2021/07/04 08:04:22;;;;;;;;;;;19.80;93.20;;;;;;4331135;33;45336;-79
2021/07/04 08:06:53;;;;;;;;;;;19.80;93.20;;;;;;4319206;33;20053;-79
2021/07/04 08:09:23;;;;;;;;;;;19.80;93.10;;;;;;4305632;33;41581;-79
2021/07/04 08:11:54;;;;;;;;;;;19.80;93.10;;;;;;4317989;33;43615;-80
2021/07/04 08:14:22;;;;;;;;;;;19.80;93.10;;;;;;4317432;33;43628;-79
2021/07/04 08:16:56;;;;;;;;;;;19.80;93.10;;;;;;4317946;33;45768;-79
2021/07/04 08:19:26;;;;;;;;;;;19.80;93.10;;;;;;4331328;33;22335;-79
2021/07/04 08:21:53;;;;;;;;;;;19.80;93.10;;;;;;4331063;33;20052;-79
2021/07/04 08:24:21;;;;;;;;;;;19.80;93.10;;;;;;4317623;33;20020;-79
2021/07/04 08:26:56;;;;;;;;;;;19.80;93.10;;;;;;4307595;33;20040;-79
2021/07/04 08:29:27;;;;;;;;;;;19.80;93.00;;;;;;4331318;33;20093;-79
2021/07/04 08:31:54;;;;;;;;;;;19.80;93.00;;;;;;4318139;33;20001;-80
2021/07/04 08:34:21;;;;;;;;;;;19.80;93.00;;;;;;4331343;33;23133;-80
2021/07/04 08:36:48;;;;;;;;;;;19.80;93.00;;;;;;4316474;33;20016;-80
2021/07/04 08:39:15;;;;;;;;;;;19.80;93.00;;;;;;4316331;33;20029;-79
2021/07/04 08:41:47;;;;;;;;;;;19.90;93.00;;;;;;4332216;33;20403;-80
2021/07/04 08:44:14;;;;;;;;;;;19.90;93.00;;;;;;4331154;33;20021;-79
2021/07/04 08:46:43;;;;;;;;;;;19.90;93.00;;;;;;4331604;33;19994;-79
2021/07/04 08:49:12;;;;;;;;;;;19.90;93.00;;;;;;4318072;33;20016;-79
2021/07/04 08:51:40;;;;;;;;;;;19.90;93.00;;;;;;4331212;33;24834;-80
2021/07/04 08:54:07;;;;;;;;;;;19.90;93.00;;;;;;4331070;33;20013;-77
2021/07/04 08:56:35;;;;;;;;;;;19.90;93.00;;;;;;4318692;33;20023;-76
2021/07/04 08:59:05;;;;;;;;;;;19.90;93.00;;;;;;4317673;33;23558;-77
2021/07/04 09:01:44;;;;;;;;;;;19.90;93.00;;;;;;4331702;33;20058;-77
2021/07/04 09:04:19;;;;;;;;;;;19.90;93.10;;;;;;4306533;33;20020;-77
2021/07/04 09:06:53;;;;;;;;;;;19.90;93.10;;;;;;4319676;33;20032;-77
2021/07/04 09:09:26;;;;;;;;;;;19.90;93.10;;;;;;4321131;33;20001;-77
2021/07/04 09:12:05;;;;;;;;;;;19.90;93.10;;;;;;4321428;33;20403;-78
2021/07/04 09:14:32;;;;;;;;;;;19.90;93.10;;;;;;4334517;33;20017;-79
2021/07/04 09:17:22;;;;;;;;;;;19.90;93.10;;;;;;4334778;33;20017;-78
2021/07/04 09:19:53;;;;;;;;;;;19.90;93.10;;;;;;4320789;33;20449;-79
2021/07/04 09:22:25;;;;;;;;;;;19.90;93.10;;;;;;4334002;33;23782;-79
2021/07/04 09:25:13;;;;;;;;;;;19.90;93.10;;;;;;4334496;33;20005;-79
2021/07/04 09:27:42;;;;;;;;;;;19.90;93.10;;;;;;4312399;33;44490;-79
2021/07/04 09:30:11;;;;;;;;;;;19.90;93.10;;;;;;4320616;33;19997;-79
2021/07/04 09:32:45;;;;;;;;;;;19.90;93.10;;;;;;4321870;33;20027;-79
2021/07/04 09:35:15;;;;;;;;;;;19.90;93.10;;;;;;4321251;33;20029;-79
2021/07/04 09:37:44;;;;;;;;;;;19.90;93.10;;;;;;4321237;33;20395;-79
2021/07/04 09:40:23;;;;;;;;;;;19.90;93.00;;;;;;4320347;33;20387;-79
2021/07/04 09:43:04;;;;;;;;;;;20.00;93.00;;;;;;4333851;33;20081;-79
2021/07/04 09:45:50;;;;;;;;;;;19.90;93.00;;;;;;4333336;33;20075;-79
2021/07/04 09:48:30;;;;;;;;;;;19.90;93.00;;;;;;4321208;33;20088;-78
2021/07/04 09:50:58;;;;;;;;;;;19.90;93.00;;;;;;4320034;33;22007;-78
2021/07/04 09:53:35;;;;;;;;;;;19.90;93.00;;;;;;4334414;33;20029;-78
2021/07/04 09:56:10;;;;;;;;;;;19.90;93.00;;;;;;4320407;33;20071;-78
2021/07/04 09:58:38;;;;;;;;;;;19.90;93.00;;;;;;4320754;33;20005;-79
2021/07/04 10:01:06;;;;;;;;;;;19.90;93.00;;;;;;4320834;33;20028;-79
2021/07/04 10:03:37;;;;;;;;;;;19.90;93.00;;;;;;4333122;33;20017;-79
2021/07/04 10:06:09;;;;;;;;;;;19.90;93.00;;;;;;4333716;33;20072;-79
2021/07/04 10:08:37;;;;;;;;;;;19.90;93.00;;;;;;4307795;33;20013;-79
2021/07/04 10:11:15;;;;;;;;;;;19.90;93.00;;;;;;4333335;33;21504;-79
2021/07/04 10:13:45;;;;;;;;;;;20.00;93.00;;;;;;4320955;33;20083;-79
2021/07/04 10:16:14;;;;;;;;;;;19.90;93.00;;;;;;4319736;33;20001;-79
2021/07/04 10:18:43;;;;;;;;;;;19.90;93.00;;;;;;4307433;33;20008;-79
2021/07/04 10:21:12;;;;;;;;;;;20.00;93.00;;;;;;4320016;33;20028;-80
2021/07/04 10:23:47;;;;;;;;;;;20.00;93.00;;;;;;4319446;33;21687;-80
2021/07/04 10:26:15;;;;;;;;;;;20.00;92.90;;;;;;4320202;33;20039;-79
2021/07/04 10:28:44;;;;;;;;;;;20.00;92.90;;;;;;4320252;33;23737;-79
2021/07/04 10:31:13;;;;;;;;;;;20.00;92.90;;;;;;4333111;33;20041;-80
2021/07/04 10:33:40;;;;;;;;;;;20.00;92.90;;;;;;4320253;33;20015;-79
2021/07/04 10:36:07;;;;;;;;;;;20.00;92.90;;;;;;4333440;33;20001;-80
2021/07/04 10:38:44;;;;;;;;;;;20.00;92.90;;;;;;4320057;33;20047;-79
2021/07/04 10:41:18;;;;;;;;;;;20.00;92.90;;;;;;4320433;33;20045;-79
2021/07/04 10:43:49;;;;;;;;;;;20.00;92.90;;;;;;4333151;33;20057;-79
2021/07/04 10:46:17;;;;;;;;;;;20.00;92.90;;;;;;4319080;33;21960;-79
2021/07/04 10:48:54;;;;;;;;;;;20.00;92.90;;;;;;4319008;33;22728;-79
2021/07/04 10:51:22;;;;;;;;;;;20.00;92.90;;;;;;4319416;33;20013;-79
2021/07/04 10:53:50;;;;;;;;;;;20.00;92.90;;;;;;4319613;33;20002;-79
2021/07/04 10:56:33;;;;;;;;;;;20.00;92.90;;;;;;4319699;33;20027;-79
2021/07/04 10:59:10;;;;;;;;;;;20.00;92.90;;;;;;4332919;33;20285;-79
2021/07/04 11:01:47;;;;;;;;;;;20.00;93.30;;;;;;4317411;33;20091;-79
2021/07/04 11:04:27;;;;;;;;;;;20.00;92.90;;;;;;4316991;33;20002;-78
2021/07/04 11:06:54;;;;;;;;;;;20.00;93.00;;;;;;4317302;33;20021;-76
2021/07/04 11:09:21;;;;;;;;;;;20.00;93.00;;;;;;4318546;33;20480;-76
2021/07/04 11:12:14;;;;;;;;;;;20.00;93.00;;;;;;4317675;33;22776;-76
2021/07/04 11:15:05;;;;;;;;;;;20.00;93.10;;;;;;4305261;33;20046;-78
2021/07/04 11:17:54;;;;;;;;;;;19.90;93.10;;;;;;4300402;33;20014;-75
2021/07/04 11:24:07;;;;;;;;;;;19.70;93.10;;;;;;4316968;33;20438;-76
2021/07/04 11:26:41;;;;;;;;;;;19.60;93.10;;;;;;4316786;33;20002;-77
2021/07/04 11:29:27;;;;;;;;;;;19.50;93.10;;;;;;4304614;33;20002;-77
2021/07/04 11:32:20;;;;;;;;;;;19.40;93.20;;;;;;4304672;33;20443;-77
2021/07/04 11:35:00;;;;;;;;;;;19.40;93.20;;;;;;4304794;33;20463;-76
2021/07/04 11:37:50;;;;;;;;;;;19.30;93.10;;;;;;4304614;33;20383;-79
2021/07/04 11:40:23;;;;;;;;;;;19.20;93.10;;;;;;4317061;33;20151;-77
2021/07/04 11:43:15;;;;;;;;;;;19.20;93.10;;;;;;4305016;33;20049;-79
2021/07/04 11:45:54;;;;;;;;;;;19.20;93.10;;;;;;4316898;33;20006;-78
2021/07/04 11:48:43;;;;;;;;;;;19.20;93.00;;;;;;4304153;33;21254;-79
2021/07/04 11:51:13;;;;;;;;;;;19.20;93.10;;;;;;4316560;33;20449;-78
2021/07/04 11:53:45;;;;;;;;;;;19.10;93.00;;;;;;4304683;33;20036;-79
2021/07/04 11:56:16;;;;;;;;;;;19.10;93.00;;;;;;4304839;33;20132;-80
2021/07/04 11:58:45;;;;;;;;;;;19.00;93.00;;;;;;4316018;33;20368;-79
2021/07/04 12:01:19;;;;;;;;;;;19.00;93.00;;;;;;4317210;33;20069;-81
2021/07/04 12:03:53;;;;;;;;;;;19.00;93.00;;;;;;4306682;33;20100;-80
2021/07/04 12:06:22;;;;;;;;;;;19.00;92.90;;;;;;4332320;33;20407;-79
2021/07/04 12:08:55;;;;;;;;;;;19.00;92.90;;;;;;4318614;33;20081;-80
2021/07/04 12:11:58;;;;;;;;;;;18.90;92.90;;;;;;4307016;33;20037;-79
2021/07/04 12:14:36;;;;;;;;;;;18.90;92.90;;;;;;4271404;33;34598;-80
2021/07/04 12:17:15;;;;;;;;;;;18.90;92.90;;;;;;4323920;33;35715;-78
2021/07/04 12:19:44;;;;;;;;;;;18.90;92.90;;;;;;4330891;33;45256;-79
2021/07/04 12:22:12;;;;;;;;;;;18.90;92.90;;;;;;4331082;33;41200;-80
2021/07/04 12:24:41;;;;;;;;;;;18.90;92.90;;;;;;4318656;33;20374;-79
2021/07/04 12:27:09;;;;;;;;;;;18.90;92.90;;;;;;4318550;33;20407;-80
2021/07/04 12:29:56;;;;;;;;;;;18.90;92.80;;;;;;4317766;33;37998;-80
2021/07/04 12:32:23;;;;;;;;;;;18.90;92.90;;;;;;4318485;33;20013;-80
2021/07/04 12:34:51;;;;;;;;;;;18.90;92.80;;;;;;4332098;33;20058;-80
2021/07/04 12:37:18;;;;;;;;;;;18.90;92.70;;;;;;4330732;33;43651;-80
2021/07/04 12:39:46;;;;;;;;;;;18.90;92.70;;;;;;4330085;33;44639;-80
2021/07/04 12:42:21;;;;;;;;;;;18.90;92.70;;;;;;4330941;33;33146;-80
2021/07/04 12:45:11;;;;;;;;;;;18.90;92.60;;;;;;4331758;33;20009;-80
2021/07/04 12:47:38;;;;;;;;;;;19.00;92.70;;;;;;4323120;33;43969;-80
2021/07/04 12:50:15;;;;;;;;;;;19.00;92.70;;;;;;4317200;33;41823;-80
2021/07/04 12:52:55;;;;;;;;;;;19.00;92.60;;;;;;4305027;33;43336;-79
2021/07/04 12:55:48;;;;;;;;;;;19.00;92.60;;;;;;4330664;33;41120;-79
2021/07/04 12:58:22;;;;;;;;;;;19.00;92.60;;;;;;4323686;33;39546;-81
2021/07/04 13:00:51;;;;;;;;;;;19.00;92.60;;;;;;4317954;33;35560;-80
2021/07/04 13:03:40;;;;;;;;;;;19.00;92.70;;;;;;4318394;33;20009;-79
2021/07/04 13:06:09;;;;;;;;;;;19.00;92.70;;;;;;4305078;33;46102;-79
2021/07/04 13:08:38;;;;;;;;;;;19.00;92.70;;;;;;4317749;33;36423;-79
2021/07/04 13:11:16;;;;;;;;;;;19.00;92.70;;;;;;4316946;33;45623;-80
2021/07/04 13:13:53;;;;;;;;;;;19.00;92.80;;;;;;4331865;33;20002;-79
2021/07/04 13:16:21;;;;;;;;;;;19.00;92.80;;;;;;4330891;33;34228;-80
2021/07/04 13:18:51;;;;;;;;;;;19.00;92.80;;;;;;4317307;33;43558;-80
2021/07/04 13:21:28;;;;;;;;;;;19.00;92.80;;;;;;4305005;33;28330;-81
2021/07/04 13:24:14;;;;;;;;;;;19.00;92.80;;;;;;4330062;33;42168;-80
2021/07/04 13:26:42;;;;;;;;;;;19.00;92.80;;;;;;4317366;33;34102;-79
2021/07/04 13:29:17;;;;;;;;;;;19.00;92.80;;;;;;4317530;33;41027;-80
2021/07/04 13:32:06;;;;;;;;;;;19.00;92.80;;;;;;4306041;33;20005;-80
2021/07/04 13:34:34;;;;;;;;;;;19.00;92.80;;;;;;4317899;33;20139;-80
2021/07/04 13:37:07;;;;;;;;;;;19.00;92.70;;;;;;4317533;33;20013;-80
2021/07/04 13:39:53;;;;;;;;;;;19.00;92.70;;;;;;4317836;33;20005;-80
2021/07/04 13:42:20;;;;;;;;;;;19.10;92.80;;;;;;4331283;33;20020;-80
2021/07/04 13:44:48;;;;;;;;;;;19.10;92.70;;;;;;4331263;33;20028;-80
2021/07/04 13:47:18;;;;;;;;;;;19.10;92.70;;;;;;4317675;33;20008;-80
2021/07/04 13:49:49;;;;;;;;;;;19.10;93.00;;;;;;4306260;33;20411;-80
2021/07/04 13:52:16;;;;;;;;;;;19.10;92.60;;;;;;4318128;33;22573;-81
2021/07/04 13:54:44;;;;;;;;;;;19.10;92.50;;;;;;4334265;33;20019;-81
2021/07/04 13:57:13;;;;;;;;;;;19.10;92.50;;;;;;4320874;33;20072;-81
2021/07/04 13:59:40;;;;;;;;;;;19.20;92.50;;;;;;4320494;33;19997;-82
2021/07/04 14:02:08;;;;;;;;;;;19.20;92.50;;;;;;4333131;33;20017;-81
2021/07/04 14:04:35;;;;;;;;;;;19.10;92.40;;;;;;4320526;33;20044;-81
2021/07/04 14:07:03;;;;;;;;;;;19.10;92.50;;;;;;4320139;33;20383;-81
2021/07/04 14:09:30;;;;;;;;;;;19.10;92.40;;;;;;4319981;33;20088;-73
2021/07/04 14:12:02;;;;;;;;;;;19.10;92.50;;;;;;4317825;33;20407;-73
2021/07/04 14:14:52;;;;;;;;;;;19.10;92.50;;;;;;4295006;33;20024;-81
2021/07/04 14:17:19;;;;;;;;;;;19.10;92.50;;;;;;4316092;33;20053;-82
2021/07/04 14:19:49;;;;;;;;;;;19.10;92.50;;;;;;4317052;33;20014;-82
2021/07/04 14:22:19;;;;;;;;;;;19.10;92.50;;;;;;4315379;33;20027;-81
2021/07/04 14:24:46;;;;;;;;;;;19.10;92.50;;;;;;4303337;33;20314;-81
2021/07/04 14:27:14;;;;;;;;;;;19.00;92.50;;;;;;4303004;33;20072;-82
2021/07/04 14:29:41;;;;;;;;;;;19.00;92.50;;;;;;4314985;33;20005;-81
2021/07/04 14:32:08;;;;;;;;;;;18.90;92.50;;;;;;4315574;33;20022;-80
2021/07/04 14:34:39;;;;;;;;;;;18.90;92.60;;;;;;4314754;33;20006;-82
2021/07/04 14:37:07;;;;;;;;;;;18.90;92.60;;;;;;4315178;33;21493;-81
2021/07/04 14:39:34;;;;;;;;;;;18.90;92.70;;;;;;4304106;33;20010;-79